createdAt,value
2019-02-17T00:01:25.360Z,97.63
2019-02-17T00:03:53.890Z,98.11
2019-02-17T00:06:22.710Z,98.39
2019-02-17T00:08:51.235Z,98.01
2019-02-17T00:11:19.766Z,98.44
2019-02-17T00:13:48.208Z,98.77
2019-02-17T00:16:16.640Z,97.98
2019-02-17T00:18:45.110Z,98.26
2019-02-17T00:21:13.639Z,98.26
2019-02-17T00:23:42.363Z,98.34
2019-02-17T00:26:10.892Z,98.15
2019-02-17T00:28:39.323Z,98.26
2019-02-17T00:31:07.760Z,97.18
2019-02-17T00:33:36.222Z,97.29
2019-02-17T00:36:04.657Z,97.71
2019-02-17T00:38:33.093Z,97.49
2019-02-17T00:41:01.566Z,97.65
2019-02-17T00:43:30.028Z,98.03
2019-02-17T00:45:58.814Z,97.83
2019-02-17T00:48:27.585Z,97.80
2019-02-17T00:50:56.373Z,97.48
2019-02-17T00:53:24.809Z,96.66
2019-02-17T00:55:53.357Z,96.66
2019-02-17T00:58:21.793Z,97.42
2019-02-17T01:00:50.534Z,97.58
2019-02-17T01:03:19.000Z,97.38
2019-02-17T01:05:47.798Z,97.40
2019-02-17T01:08:16.238Z,97.31
2019-02-17T01:10:44.707Z,97.00
2019-02-17T01:13:13.138Z,96.67
2019-02-17T01:15:41.908Z,97.34
2019-02-17T01:18:10.384Z,97.45
2019-02-17T01:20:39.178Z,96.68
2019-02-17T01:23:07.615Z,98.08
2019-02-17T01:25:36.248Z,97.79
2019-02-17T01:28:04.824Z,96.44
2019-02-17T01:30:33.257Z,96.90
2019-02-17T01:33:01.733Z,97.08
2019-02-17T01:35:30.153Z,97.02
2019-02-17T01:37:58.789Z,96.32
2019-02-17T01:40:27.241Z,96.28
2019-02-17T01:42:55.677Z,97.24
2019-02-17T01:45:24.182Z,98.44
2019-02-17T01:47:52.834Z,97.37
2019-02-17T01:50:21.270Z,97.18
2019-02-17T01:52:50.070Z,97.42
2019-02-17T01:55:18.538Z,98.16
2019-02-17T01:57:47.073Z,97.59
2019-02-17T02:00:16.448Z,98.81
2019-02-17T02:02:44.930Z,99.80
2019-02-17T02:05:13.446Z,97.82
2019-02-17T02:07:41.982Z,97.32
2019-02-17T02:10:10.726Z,97.01
2019-02-17T02:12:39.231Z,96.63
2019-02-17T02:15:10.410Z,96.93
2019-02-17T02:17:38.951Z,97.17
2019-02-17T02:20:12.987Z,97.84
2019-02-17T02:22:41.699Z,97.62
2019-02-17T02:25:10.697Z,96.68
2019-02-17T02:27:39.133Z,96.16
2019-02-17T02:30:10.809Z,96.68
2019-02-17T02:32:39.382Z,96.41
2019-02-17T02:35:07.955Z,96.82
2019-02-17T02:37:36.457Z,96.33
2019-02-17T02:40:05.984Z,96.75
2019-02-17T02:42:34.441Z,96.48
2019-02-17T02:45:03.040Z,97.45
2019-02-17T02:47:31.513Z,96.96
2019-02-17T02:49:59.945Z,96.61
2019-02-17T02:52:28.385Z,97.19
2019-02-17T02:54:56.940Z,96.80
2019-02-17T02:57:25.373Z,96.83
2019-02-17T02:59:53.808Z,97.12
2019-02-17T03:02:22.574Z,96.65
2019-02-17T03:04:51.006Z,96.79
2019-02-17T03:07:19.510Z,96.68
2019-02-17T03:09:47.970Z,96.40
2019-02-17T03:12:16.408Z,95.52
2019-02-17T03:14:44.848Z,95.92
2019-02-17T03:17:13.309Z,96.03
2019-02-17T03:19:41.743Z,96.83
2019-02-17T03:22:10.180Z,95.92
2019-02-17T03:24:39.007Z,95.90
2019-02-17T03:27:07.441Z,95.39
2019-02-17T03:29:35.882Z,95.52
2019-02-17T03:32:04.369Z,96.63
2019-02-17T03:34:32.795Z,97.66
2019-02-17T03:37:01.232Z,98.14
2019-02-17T03:39:30.097Z,97.24
2019-02-17T03:41:58.705Z,96.76
2019-02-17T03:44:27.213Z,95.84
2019-02-17T03:46:55.949Z,96.17
2019-02-17T03:49:24.485Z,96.34
2019-02-17T03:51:52.931Z,96.03
2019-02-17T03:54:21.393Z,95.74
2019-02-17T03:56:49.839Z,94.99
2019-02-17T03:59:18.273Z,95.37
2019-02-17T04:01:46.994Z,95.30
2019-02-17T04:04:15.428Z,94.98
2019-02-17T04:07:03.237Z,94.37
2019-02-17T04:09:50.856Z,94.76
2019-02-17T04:12:19.497Z,96.18
2019-02-17T04:14:47.935Z,96.27
2019-02-17T04:17:16.718Z,96.42
2019-02-17T04:20:04.506Z,96.52
2019-02-17T04:22:32.943Z,96.28
2019-02-17T04:25:01.379Z,95.90
2019-02-17T04:27:29.842Z,96.38
2019-02-17T04:29:58.370Z,96.41
2019-02-17T04:32:26.802Z,96.69
2019-02-17T04:34:55.262Z,96.72
2019-02-17T04:37:23.795Z,98.05
2019-02-17T04:39:52.227Z,98.09
2019-02-17T04:42:20.711Z,97.10
2019-02-17T04:44:49.163Z,97.21
2019-02-17T04:47:17.718Z,97.29
2019-02-17T04:49:46.184Z,97.78
2019-02-17T04:52:14.617Z,97.51
2019-02-17T04:54:43.052Z,98.68
2019-02-17T04:57:11.521Z,99.69
2019-02-17T04:59:39.953Z,98.73
2019-02-17T05:02:08.545Z,98.79
2019-02-17T05:04:37.318Z,97.85
2019-02-17T05:07:05.767Z,97.10
2019-02-17T05:09:34.198Z,97.51
2019-02-17T05:12:02.754Z,98.14
2019-02-17T05:14:31.346Z,99.50
2019-02-17T05:16:59.864Z,100.00
2019-02-17T05:19:28.341Z,100.00
2019-02-17T05:21:56.779Z,100.00
2019-02-17T05:24:25.218Z,100.00
2019-02-17T05:26:53.701Z,100.00
2019-02-17T05:29:22.142Z,100.00
2019-02-17T05:31:50.924Z,100.00
2019-02-17T05:34:19.659Z,100.00
2019-02-17T05:36:48.104Z,100.00
2019-02-17T05:39:16.622Z,100.00
2019-02-17T05:41:45.105Z,100.00
2019-02-17T05:44:13.582Z,100.00
2019-02-17T05:46:42.455Z,100.00
2019-02-17T05:49:11.160Z,100.00
2019-02-17T05:51:39.600Z,100.00
2019-02-17T05:54:08.380Z,100.00
2019-02-17T05:56:36.867Z,100.00
2019-02-17T05:59:05.397Z,100.00
2019-02-17T06:01:33.835Z,100.00
2019-02-17T06:04:02.303Z,100.00
2019-02-17T06:06:30.751Z,100.00
2019-02-17T06:08:59.199Z,100.00
2019-02-17T06:11:28.265Z,100.00
2019-02-17T06:13:56.708Z,100.00
2019-02-17T06:16:25.428Z,100.00
2019-02-17T06:18:53.913Z,100.00
2019-02-17T06:21:22.694Z,100.00
2019-02-17T06:23:51.156Z,100.00
2019-02-17T06:26:20.559Z,100.00
2019-02-17T06:28:49.087Z,100.00
2019-02-17T06:31:17.533Z,100.00
2019-02-17T06:33:46.335Z,100.00
2019-02-17T06:36:14.873Z,100.00
2019-02-17T06:38:43.706Z,100.00
2019-02-17T06:41:12.183Z,100.00
2019-02-17T06:43:40.639Z,100.00
2019-02-17T06:46:10.808Z,100.00
2019-02-17T06:48:39.278Z,100.00
2019-02-17T06:51:07.793Z,100.00
2019-02-17T06:53:36.232Z,100.00
2019-02-17T06:56:08.987Z,100.00
2019-02-17T06:58:36.880Z,100.00
2019-02-17T07:01:05.326Z,100.00
2019-02-17T07:03:33.792Z,100.00
2019-02-17T07:06:03.917Z,100.00
2019-02-17T07:08:33.264Z,100.00
2019-02-17T07:11:01.732Z,100.00
2019-02-17T07:13:30.166Z,100.00
2019-02-17T07:15:58.622Z,100.00
2019-02-17T07:18:27.072Z,100.00
2019-02-17T07:20:55.534Z,100.00
2019-02-17T07:23:23.983Z,100.00
2019-02-17T07:25:52.460Z,100.00
2019-02-17T07:28:20.902Z,100.00
2019-02-17T07:30:49.367Z,100.00
2019-02-17T07:33:17.855Z,100.00
2019-02-17T07:35:46.288Z,100.00
2019-02-17T07:38:14.739Z,100.00
2019-02-17T07:40:43.208Z,100.00
2019-02-17T07:43:11.998Z,100.00
2019-02-17T07:45:40.435Z,100.00
2019-02-17T07:48:08.915Z,100.00
2019-02-17T07:50:37.349Z,100.00
2019-02-17T07:53:06.127Z,100.00
2019-02-17T07:55:35.816Z,100.00
2019-02-17T07:58:04.252Z,100.00
2019-02-17T08:00:32.691Z,100.00
2019-02-17T08:03:01.167Z,100.00
2019-02-17T08:05:29.697Z,100.00
2019-02-17T08:07:58.457Z,100.00
2019-02-17T08:10:26.961Z,100.00
2019-02-17T08:12:55.517Z,100.00
2019-02-17T08:15:23.959Z,100.00
2019-02-17T08:17:52.418Z,100.00
2019-02-17T08:20:20.862Z,100.00
2019-02-17T08:22:49.299Z,100.00
2019-02-17T08:25:21.801Z,100.00
2019-02-17T08:27:47.940Z,100.00
2019-02-17T08:30:16.541Z,100.00
2019-02-17T08:32:45.126Z,100.00
2019-02-17T08:35:13.625Z,100.00
2019-02-17T08:37:42.107Z,100.00
2019-02-17T08:40:11.361Z,100.00
2019-02-17T08:42:39.879Z,100.00
2019-02-17T08:45:11.609Z,100.00
2019-02-17T08:47:40.190Z,100.00
2019-02-17T08:50:11.175Z,100.00
2019-02-17T08:52:39.694Z,100.00
2019-02-17T08:55:10.313Z,100.00
2019-02-17T08:57:38.821Z,100.00
2019-02-17T09:00:13.441Z,100.00
2019-02-17T09:02:41.979Z,100.00
2019-02-17T09:05:10.544Z,100.00
2019-02-17T09:07:39.057Z,100.00
2019-02-17T09:10:12.882Z,100.00
2019-02-17T09:12:41.316Z,100.00
2019-02-17T09:15:11.794Z,100.00
2019-02-17T09:17:40.282Z,100.00
2019-02-17T09:20:10.662Z,100.00
2019-02-17T09:22:39.094Z,100.00
2019-02-17T09:25:10.110Z,100.00
2019-02-17T09:27:38.606Z,99.06
2019-02-17T09:30:13.028Z,98.42
2019-02-17T09:32:41.497Z,98.66
2019-02-17T09:35:09.996Z,99.40
2019-02-17T09:37:38.452Z,99.07
2019-02-17T09:40:10.632Z,99.07
2019-02-17T09:42:39.446Z,98.84
2019-02-17T09:45:11.576Z,99.29
2019-02-17T09:47:40.034Z,97.93
2019-02-17T09:50:11.504Z,97.19
2019-02-17T09:52:40.084Z,97.03
2019-02-17T09:55:10.500Z,96.07
2019-02-17T09:57:39.757Z,96.00
2019-02-17T10:00:11.200Z,96.04
2019-02-17T10:02:39.733Z,95.05
2019-02-17T10:05:10.197Z,94.26
2019-02-17T10:07:38.804Z,94.79
2019-02-17T10:10:15.819Z,94.62
2019-02-17T10:12:44.664Z,95.27
2019-02-17T10:15:14.032Z,94.99
2019-02-17T10:17:42.917Z,95.03
2019-02-17T10:20:13.930Z,94.33
2019-02-17T10:22:42.352Z,93.25
2019-02-17T10:25:11.344Z,93.38
2019-02-17T10:27:39.774Z,92.29
2019-02-17T10:30:16.450Z,92.60
2019-02-17T10:32:44.945Z,92.07
2019-02-17T10:35:13.548Z,91.70
2019-02-17T10:37:42.029Z,91.11
2019-02-17T10:40:15.617Z,89.91
2019-02-17T10:42:44.373Z,90.49
2019-02-17T10:45:13.696Z,89.92
2019-02-17T10:47:42.124Z,89.87
2019-02-17T10:50:12.294Z,89.48
2019-02-17T10:52:40.754Z,89.06
2019-02-17T10:55:11.574Z,88.88
2019-02-17T10:57:40.268Z,89.95
2019-02-17T11:00:14.848Z,89.55
2019-02-17T11:02:46.946Z,89.21
2019-02-17T11:05:13.905Z,88.97
2019-02-17T11:07:42.745Z,88.64
2019-02-17T11:10:13.181Z,88.08
2019-02-17T11:12:41.681Z,86.87
2019-02-17T11:15:16.276Z,86.75
2019-02-17T11:17:44.705Z,86.36
2019-02-17T11:20:13.369Z,86.12
2019-02-17T11:22:41.904Z,85.94
2019-02-17T11:25:10.870Z,85.38
2019-02-17T11:27:39.306Z,85.90
2019-02-17T11:30:11.177Z,85.34
2019-02-17T11:32:39.604Z,85.38
2019-02-17T11:35:08.471Z,84.16
2019-02-17T11:37:37.048Z,84.51
2019-02-17T11:40:08.621Z,83.59
2019-02-17T11:42:37.051Z,83.37
2019-02-17T11:45:19.885Z,83.99
2019-02-17T11:47:48.552Z,84.13
2019-02-17T11:50:16.980Z,83.61
2019-02-17T11:52:45.438Z,83.50
2019-02-17T11:55:15.408Z,83.03
2019-02-17T11:57:43.909Z,82.90
2019-02-17T12:00:18.745Z,82.22
2019-02-17T12:02:47.177Z,81.44
2019-02-17T12:05:15.676Z,81.36
2019-02-17T12:07:44.272Z,81.42
2019-02-17T12:10:13.045Z,80.44
2019-02-17T12:12:41.812Z,80.57
2019-02-17T12:15:12.853Z,80.35
2019-02-17T12:17:41.366Z,80.08
2019-02-17T12:20:33.019Z,80.41
2019-02-17T12:23:03.085Z,79.98
2019-02-17T12:25:33.257Z,80.34
2019-02-17T12:28:06.201Z,79.62
2019-02-17T12:30:34.971Z,79.31
2019-02-17T12:33:03.409Z,79.55
2019-02-17T12:35:31.894Z,78.84
2019-02-17T12:38:00.370Z,79.07
2019-02-17T12:40:28.829Z,78.67
2019-02-17T12:42:57.665Z,78.21
2019-02-17T12:45:26.208Z,78.00
2019-02-17T12:47:58.210Z,77.98
2019-02-17T12:50:24.928Z,78.00
2019-02-17T12:52:53.462Z,78.15
2019-02-17T12:55:21.893Z,78.08
2019-02-17T12:57:50.487Z,77.74
2019-02-17T13:00:19.058Z,77.94
2019-02-17T13:02:47.498Z,78.09
2019-02-17T13:05:16.063Z,78.36
2019-02-17T13:07:44.855Z,78.70
2019-02-17T13:10:13.575Z,78.36
2019-02-17T13:12:42.052Z,78.51
2019-02-17T13:15:12.229Z,78.05
2019-02-17T13:17:40.661Z,77.94
2019-02-17T13:20:11.980Z,77.87
2019-02-17T13:22:40.481Z,77.49
2019-02-17T13:25:11.889Z,77.59
2019-02-17T13:27:41.201Z,77.58
2019-02-17T13:30:21.431Z,78.09
2019-02-17T13:32:50.059Z,77.43
2019-02-17T13:35:20.596Z,76.96
2019-02-17T13:37:49.026Z,77.12
2019-02-17T13:40:17.564Z,76.72
2019-02-17T13:42:46.105Z,76.67
2019-02-17T13:45:17.074Z,76.46
2019-02-17T13:47:45.590Z,76.50
2019-02-17T13:50:16.040Z,75.87
2019-02-17T13:52:44.759Z,75.76
2019-02-17T13:55:13.747Z,75.81
2019-02-17T13:57:42.189Z,75.50
2019-02-17T14:00:19.148Z,75.23
2019-02-17T14:02:48.621Z,75.09
2019-02-17T14:05:17.135Z,74.54
2019-02-17T14:07:45.700Z,74.61
2019-02-17T14:10:14.687Z,73.30
2019-02-17T14:12:43.297Z,73.58
2019-02-17T14:15:19.772Z,72.93
2019-02-17T14:17:48.193Z,73.16
2019-02-17T14:20:16.699Z,73.03
2019-02-17T14:22:45.631Z,73.11
2019-02-17T14:25:14.433Z,72.48
2019-02-17T14:27:42.866Z,71.83
2019-02-17T14:30:14.009Z,71.91
2019-02-17T14:32:42.787Z,70.82
2019-02-17T14:35:11.364Z,71.35
2019-02-17T14:37:40.879Z,71.87
2019-02-17T14:40:11.442Z,72.16
2019-02-17T14:42:39.878Z,71.85
2019-02-17T14:45:13.024Z,71.72
2019-02-17T14:47:41.756Z,71.83
2019-02-17T14:50:10.741Z,72.21
2019-02-17T14:52:39.212Z,72.20
2019-02-17T14:55:09.490Z,72.42
2019-02-17T14:57:38.250Z,72.18
2019-02-17T15:00:12.478Z,71.32
2019-02-17T15:02:40.931Z,71.62
2019-02-17T15:05:10.529Z,72.05
2019-02-17T15:07:38.983Z,72.16
2019-02-17T15:10:11.827Z,71.88
2019-02-17T15:12:40.446Z,71.78
2019-02-17T15:15:14.403Z,71.53
2019-02-17T15:17:42.838Z,71.19
2019-02-17T15:20:16.221Z,71.42
2019-02-17T15:22:45.086Z,71.38
2019-02-17T15:25:13.620Z,72.04
2019-02-17T15:27:42.150Z,71.85
2019-02-17T15:30:17.639Z,71.53
2019-02-17T15:32:45.549Z,71.63
2019-02-17T15:35:14.190Z,71.58
2019-02-17T15:37:43.624Z,71.43
2019-02-17T15:40:14.345Z,72.07
2019-02-17T15:42:43.471Z,72.04
2019-02-17T15:45:13.742Z,71.29
2019-02-17T15:47:43.154Z,72.19
2019-02-17T15:50:14.135Z,71.98
2019-02-17T15:52:42.963Z,71.74
2019-02-17T15:55:13.601Z,72.01
2019-02-17T15:57:42.346Z,72.57
2019-02-17T16:00:15.729Z,72.62
2019-02-17T16:02:44.381Z,72.55
2019-02-17T16:05:12.952Z,72.64
2019-02-17T16:07:41.498Z,72.91
2019-02-17T16:10:15.017Z,72.77
2019-02-17T16:12:43.461Z,72.55
2019-02-17T16:15:17.370Z,73.24
2019-02-17T16:17:45.805Z,73.54
2019-02-17T16:20:15.163Z,74.50
2019-02-17T16:22:43.796Z,74.14
2019-02-17T16:25:12.950Z,74.49
2019-02-17T16:27:41.393Z,74.12
2019-02-17T16:30:49.775Z,74.48
2019-02-17T16:33:18.211Z,74.56
2019-02-17T16:35:46.651Z,74.88
2019-02-17T16:38:15.111Z,75.66
2019-02-17T16:40:43.540Z,76.07
2019-02-17T16:43:12.303Z,77.15
2019-02-17T16:45:40.860Z,77.68
2019-02-17T16:48:09.576Z,77.69
2019-02-17T16:50:38.009Z,78.46
2019-02-17T16:53:25.670Z,79.16
2019-02-17T16:55:54.096Z,80.30
2019-02-17T16:58:22.525Z,80.69
2019-02-17T17:01:32.716Z,80.55
2019-02-17T17:04:20.385Z,81.18
2019-02-17T17:06:48.974Z,82.48
2019-02-17T17:09:17.703Z,82.92
2019-02-17T17:12:05.980Z,83.62
2019-02-17T17:14:34.414Z,83.98
2019-02-17T17:17:22.178Z,84.85
2019-02-17T17:19:50.952Z,85.83
2019-02-17T17:22:21.533Z,84.99
2019-02-17T17:27:23.992Z,85.74
2019-02-17T17:30:11.808Z,85.19
2019-02-17T17:32:59.804Z,85.75
2019-02-17T17:35:28.322Z,87.60
2019-02-17T17:38:16.042Z,86.81
2019-02-17T17:40:44.538Z,87.23
2019-02-17T17:43:32.342Z,88.31
2019-02-17T17:48:54.556Z,89.31
2019-02-17T17:51:42.385Z,88.96
2019-02-17T17:54:30.526Z,90.22
2019-02-17T18:00:12.438Z,90.13
2019-02-17T18:03:00.196Z,91.82
2019-02-17T18:05:48.147Z,90.25
2019-02-17T18:11:29.675Z,90.31
2019-02-17T18:14:17.504Z,92.59
2019-02-17T18:16:57.785Z,90.98
2019-02-17T18:22:39.319Z,91.92
2019-02-17T18:25:48.013Z,91.19
2019-02-17T18:28:17.937Z,91.90
2019-02-17T18:31:05.875Z,91.62
2019-02-17T18:33:53.692Z,91.90
2019-02-17T18:42:10.305Z,91.65
2019-02-17T18:44:58.327Z,92.45
2019-02-17T18:48:06.722Z,91.99
2019-02-17T18:50:59.211Z,91.73
2019-02-17T18:56:51.023Z,92.96
2019-02-17T18:59:59.528Z,93.26
2019-02-17T19:02:47.388Z,92.54
2019-02-17T19:05:35.141Z,93.47
2019-02-17T19:08:23.381Z,93.52
2019-02-17T19:11:11.509Z,93.94
2019-02-17T19:13:59.756Z,95.29
2019-02-17T19:16:47.731Z,93.73
2019-02-17T19:19:35.425Z,92.55
2019-02-17T19:22:23.099Z,94.62
2019-02-17T19:25:11.131Z,94.69
2019-02-17T19:27:58.809Z,94.16
2019-02-17T19:30:27.824Z,93.99
2019-02-17T19:33:15.923Z,94.17
2019-02-17T19:36:04.111Z,94.12
2019-02-17T19:38:32.709Z,93.46
2019-02-17T19:41:20.861Z,94.10
2019-02-17T19:44:08.674Z,94.59
2019-02-17T19:50:11.913Z,95.21
2019-02-17T19:53:00.152Z,97.37
2019-02-17T19:55:48.507Z,95.37
2019-02-17T19:58:36.298Z,95.65
2019-02-17T20:04:36.941Z,94.95
2019-02-17T20:10:18.001Z,95.62
2019-02-17T20:12:47.422Z,95.78
2019-02-17T20:18:44.016Z,95.48
2019-02-17T20:21:31.679Z,95.76
2019-02-17T20:24:41.051Z,95.52
2019-02-17T20:27:09.533Z,95.48
2019-02-17T20:29:38.088Z,97.01
2019-02-17T20:34:59.901Z,96.05
2019-02-17T20:37:47.667Z,95.93
2019-02-17T20:40:56.062Z,96.54
2019-02-17T20:43:43.955Z,96.44
2019-02-17T20:46:12.902Z,95.60
2019-02-17T20:48:41.822Z,96.27
2019-02-17T20:51:12.227Z,95.75
2019-02-17T20:53:41.024Z,96.00
2019-02-17T20:56:09.663Z,96.08
2019-02-17T20:58:40.288Z,96.18
2019-02-17T21:01:09.845Z,96.53
2019-02-17T21:03:38.408Z,96.86
2019-02-17T21:06:12.923Z,97.74
2019-02-17T21:08:56.807Z,97.70
2019-02-17T21:11:25.430Z,99.30
2019-02-17T21:14:13.141Z,98.20
2019-02-17T21:19:55.668Z,97.17
2019-02-17T21:23:04.334Z,97.19
2019-02-17T21:25:52.046Z,97.42
2019-02-17T21:28:20.825Z,97.55
2019-02-17T21:31:08.465Z,97.35
2019-02-17T21:33:56.322Z,96.74
2019-02-17T21:36:24.785Z,96.61
2019-02-17T21:38:53.236Z,97.35
2019-02-17T21:44:16.781Z,96.63
2019-02-17T21:46:46.681Z,97.13
2019-02-17T21:49:15.113Z,96.89
2019-02-17T21:51:43.670Z,97.42
2019-02-17T21:54:12.096Z,97.22
2019-02-17T21:56:40.529Z,96.97
2019-02-17T21:59:08.996Z,97.18
2019-02-17T22:01:37.745Z,97.53
2019-02-17T22:04:06.176Z,97.66
2019-02-17T22:06:34.725Z,96.57
2019-02-17T22:11:52.265Z,97.37
2019-02-17T22:14:20.706Z,96.58
2019-02-17T22:16:49.420Z,96.87
2019-02-17T22:19:17.878Z,97.57
2019-02-17T22:21:46.310Z,97.23
2019-02-17T22:24:14.834Z,97.97
2019-02-17T22:26:43.293Z,97.87
2019-02-17T22:29:12.852Z,97.61
2019-02-17T22:32:01.322Z,98.29
2019-02-17T22:34:30.089Z,97.35
2019-02-17T22:36:58.525Z,97.64
2019-02-17T22:39:27.261Z,97.13
2019-02-17T22:41:56.045Z,97.34
2019-02-17T22:44:24.834Z,97.31
2019-02-17T22:47:12.715Z,96.91
2019-02-17T22:49:41.126Z,97.59
2019-02-17T23:01:10.689Z,97.10
2019-02-17T23:03:58.665Z,96.83
2019-02-17T23:06:53.787Z,97.20
2019-02-17T23:09:35.970Z,97.27
2019-02-17T23:12:04.475Z,98.03
2019-02-17T23:14:32.911Z,96.98
2019-02-17T23:19:35.042Z,96.81
2019-02-17T23:22:03.481Z,96.98
2019-02-17T23:24:32.029Z,95.63
2019-02-17T23:27:19.807Z,95.53
2019-02-17T23:29:48.377Z,95.68
2019-02-17T23:32:16.840Z,95.84
2019-02-17T23:34:45.365Z,96.35
2019-02-17T23:37:13.835Z,96.55
2019-02-17T23:39:42.269Z,96.63
2019-02-17T23:42:10.798Z,96.87
2019-02-17T23:44:39.258Z,97.04
2019-02-17T23:47:07.690Z,97.27
2019-02-17T23:49:36.121Z,96.84
2019-02-17T23:52:24.053Z,96.97
2019-02-17T23:54:52.791Z,97.23
2019-02-17T23:57:21.233Z,96.85
2019-02-17T23:59:50.267Z,96.68
